createdAt,value
2023-03-24T00:01:08.389Z,98826.84
2023-03-24T00:03:36.481Z,98820.66
2023-03-24T00:06:05.747Z,98825.47
2023-03-24T00:08:37.007Z,98811.22
2023-03-24T00:11:11.635Z,98818.47
2023-03-24T00:13:39.962Z,98807.94
2023-03-24T00:16:12.563Z,98805.50
2023-03-24T00:18:40.369Z,98813.00
2023-03-24T00:21:08.870Z,98809.75
2023-03-24T00:23:36.128Z,98812.44
2023-03-24T00:26:08.888Z,98804.84
2023-03-24T00:28:37.220Z,98800.56
2023-03-24T00:31:06.542Z,98787.13
2023-03-24T00:33:34.951Z,98783.38
2023-03-24T00:36:06.793Z,98771.81
2023-03-24T00:38:34.829Z,98773.94
2023-03-24T00:41:02.242Z,98767.97
2023-03-24T00:43:30.027Z,98767.75
2023-03-24T00:46:03.973Z,98756.19
2023-03-24T00:48:34.971Z,98755.38
2023-03-24T00:51:02.960Z,98738.66
2023-03-24T00:53:30.289Z,98735.16
2023-03-24T00:55:58.482Z,98722.00
2023-03-24T00:58:25.928Z,98729.22
2023-03-24T01:00:57.302Z,98724.13
2023-03-24T01:03:27.270Z,98722.50
2023-03-24T01:05:57.490Z,98724.59
2023-03-24T01:08:25.588Z,98713.28
2023-03-24T01:10:53.371Z,98714.34
2023-03-24T01:13:29.506Z,98722.41
2023-03-24T01:15:57.531Z,98722.97
2023-03-24T01:18:24.701Z,98715.97
2023-03-24T01:20:53.322Z,98722.16
2023-03-24T01:23:24.113Z,98717.03
2023-03-24T01:25:51.746Z,98716.47
2023-03-24T01:28:24.923Z,98703.03
2023-03-24T01:30:54.214Z,98711.66
2023-03-24T01:33:22.159Z,98703.59
2023-03-24T01:35:49.951Z,98700.94
2023-03-24T01:38:17.343Z,98704.16
2023-03-24T01:40:47.351Z,98697.25
2023-03-24T01:43:27.040Z,98701.00
2023-03-24T01:46:19.737Z,98690.25
2023-03-24T01:49:02.503Z,98686.72
2023-03-24T01:51:40.786Z,98687.78
2023-03-24T01:54:18.785Z,98683.22
2023-03-24T01:56:56.344Z,98676.06
2023-03-24T01:59:30.164Z,98680.13
2023-03-24T02:02:18.344Z,98682.88
2023-03-24T02:04:58.529Z,98685.31
2023-03-24T02:07:58.850Z,98687.25
2023-03-24T02:10:26.834Z,98693.22
2023-03-24T02:12:53.783Z,98683.00
2023-03-24T02:15:21.020Z,98673.88
2023-03-24T02:18:29.155Z,98678.25
2023-03-24T02:21:51.476Z,98670.75
2023-03-24T02:25:14.147Z,98660.31
2023-03-24T02:28:19.898Z,98672.13
2023-03-24T02:31:28.114Z,98676.44
2023-03-24T02:34:31.186Z,98681.00
2023-03-24T02:37:48.156Z,98681.03
2023-03-24T02:40:40.961Z,98678.34
2023-03-24T02:44:04.197Z,98663.06
2023-03-24T02:47:00.367Z,98656.84
2023-03-24T02:49:54.098Z,98653.13
2023-03-24T02:52:38.289Z,98655.56
2023-03-24T02:55:27.940Z,98652.88
2023-03-24T02:58:05.121Z,98658.25
2023-03-24T03:01:18.257Z,98652.31
2023-03-24T03:04:17.618Z,98652.31
2023-03-24T03:06:52.381Z,98640.22
2023-03-24T03:09:21.548Z,98641.28
2023-03-24T03:11:54.513Z,98626.78
2023-03-24T03:14:35.234Z,98623.53
2023-03-24T03:17:14.617Z,98613.03
2023-03-24T03:19:50.255Z,98610.91
2023-03-24T03:22:24.556Z,98604.72
2023-03-24T03:24:54.260Z,98612.78
2023-03-24T03:27:29.010Z,98609.28
2023-03-24T03:30:03.160Z,98626.25
2023-03-24T03:32:39.674Z,98620.06
2023-03-24T03:35:19.764Z,98640.72
2023-03-24T03:38:03.242Z,98657.69
2023-03-24T03:40:36.620Z,98684.56
2023-03-24T03:43:11.728Z,98691.00
2023-03-24T03:45:38.832Z,98693.44
2023-03-24T03:48:06.446Z,98691.00
2023-03-24T03:50:34.411Z,98684.81
2023-03-24T03:53:07.276Z,98690.44
2023-03-24T03:55:35.384Z,98688.00
2023-03-24T03:58:04.634Z,98697.94
2023-03-24T04:00:38.134Z,98695.53
2023-03-24T04:03:45.007Z,98694.13
2023-03-24T04:06:27.695Z,98689.00
2023-03-24T04:09:29.880Z,98690.06
2023-03-24T04:12:11.053Z,98692.44
2023-03-24T04:15:26.592Z,98692.44
2023-03-24T04:18:43.973Z,98705.31
2023-03-24T04:21:28.237Z,98716.88
2023-03-24T04:24:27.454Z,98720.38
2023-03-24T04:27:11.286Z,98719.56
2023-03-24T04:30:08.208Z,98748.06
2023-03-24T04:33:08.519Z,98746.44
2023-03-24T04:35:45.125Z,98762.03
2023-03-24T04:38:25.552Z,98762.50
2023-03-24T04:41:07.994Z,98768.56
2023-03-24T04:43:38.766Z,98765.16
2023-03-24T04:46:09.566Z,98753.41
2023-03-24T04:48:49.754Z,98739.75
2023-03-24T04:51:48.923Z,98754.56
2023-03-24T04:54:21.726Z,98742.81
2023-03-24T04:56:58.248Z,98743.25
2023-03-24T04:59:33.854Z,98749.56
2023-03-24T05:02:03.337Z,98744.09
2023-03-24T05:04:30.826Z,98749.63
2023-03-24T05:07:07.865Z,98749.31
2023-03-24T05:09:34.914Z,98755.41
2023-03-24T05:12:02.809Z,98760.66
2023-03-24T05:14:36.346Z,98764.91
2023-03-24T05:17:05.151Z,98768.03
2023-03-24T05:19:32.694Z,98763.75
2023-03-24T05:21:59.934Z,98771.72
2023-03-24T05:24:27.123Z,98771.38
2023-03-24T05:26:54.067Z,98764.50
2023-03-24T05:29:20.998Z,98782.59
2023-03-24T05:31:48.467Z,98766.91
2023-03-24T05:34:22.614Z,98770.16
2023-03-24T05:37:02.644Z,98767.84
2023-03-24T05:39:29.652Z,98776.25
2023-03-24T05:42:07.531Z,98772.06
2023-03-24T05:44:34.522Z,98774.63
2023-03-24T05:47:07.707Z,98775.34
2023-03-24T05:49:35.151Z,98769.41
2023-03-24T05:52:02.277Z,98775.47
2023-03-24T05:54:29.884Z,98770.34
2023-03-24T05:57:09.597Z,98774.88
2023-03-24T05:59:59.384Z,98773.03
2023-03-24T06:02:46.421Z,98771.16
2023-03-24T06:05:27.287Z,98763.94
2023-03-24T06:07:58.761Z,98760.44
2023-03-24T06:10:29.251Z,98752.97
2023-03-24T06:12:57.628Z,98751.91
2023-03-24T06:15:27.761Z,98757.06
2023-03-24T06:18:00.914Z,98741.81
2023-03-24T06:20:33.830Z,98749.84
2023-03-24T06:23:08.441Z,98761.38
2023-03-24T06:25:47.552Z,98768.59
2023-03-24T06:28:22.746Z,98764.38
2023-03-24T06:30:50.678Z,98769.72
2023-03-24T06:33:25.823Z,98769.53
2023-03-24T06:35:54.012Z,98773.00
2023-03-24T06:38:22.167Z,98770.09
2023-03-24T06:40:49.360Z,98769.03
2023-03-24T06:43:17.640Z,98774.41
2023-03-24T06:45:45.779Z,98775.78
2023-03-24T06:48:19.364Z,98777.66
2023-03-24T06:50:46.804Z,98781.13
2023-03-24T06:53:14.309Z,98787.56
2023-03-24T06:55:41.457Z,98787.31
2023-03-24T06:58:10.281Z,98794.31
2023-03-24T07:00:55.232Z,98793.28
2023-03-24T07:03:33.146Z,98788.47
2023-03-24T07:06:20.583Z,98794.41
2023-03-24T07:08:52.182Z,98795.22
2023-03-24T07:11:20.839Z,98804.69
2023-03-24T07:13:52.143Z,98801.75
2023-03-24T07:16:19.302Z,98811.41
2023-03-24T07:18:49.823Z,98812.84
2023-03-24T07:21:16.965Z,98813.03
2023-03-24T07:23:44.904Z,98816.53
2023-03-24T07:26:15.855Z,98820.88
2023-03-24T07:28:49.303Z,98814.47
2023-03-24T07:31:37.610Z,98824.94
2023-03-24T07:34:08.231Z,98817.94
2023-03-24T07:36:37.323Z,98811.53
2023-03-24T07:39:06.944Z,98813.41
2023-03-24T07:41:35.661Z,98800.81
2023-03-24T07:44:08.527Z,98794.41
2023-03-24T07:46:40.868Z,98800.34
2023-03-24T07:49:18.107Z,98801.97
2023-03-24T07:51:51.479Z,98799.63
2023-03-24T07:54:29.730Z,98788.09
2023-03-24T07:56:56.775Z,98785.41
2023-03-24T07:59:25.941Z,98794.03
2023-03-24T08:01:56.978Z,98781.22
2023-03-24T08:04:44.794Z,98796.84
2023-03-24T08:07:28.042Z,98806.53
2023-03-24T08:09:54.992Z,98795.44
2023-03-24T08:12:21.929Z,98791.69
2023-03-24T08:14:49.111Z,98796.03
2023-03-24T08:17:16.266Z,98807.78
2023-03-24T08:19:58.199Z,98801.63
2023-03-24T08:22:28.015Z,98806.97
2023-03-24T08:24:54.931Z,98812.13
2023-03-24T08:27:21.915Z,98807.56
2023-03-24T08:29:48.896Z,98808.38
2023-03-24T08:32:15.914Z,98817.25
2023-03-24T08:34:42.992Z,98824.22
2023-03-24T08:37:11.782Z,98811.63
2023-03-24T08:39:38.739Z,98816.44
2023-03-24T08:42:05.885Z,98819.94
2023-03-24T08:44:33.078Z,98810.00
2023-03-24T08:47:03.384Z,98815.16
2023-03-24T08:49:30.531Z,98824.84
2023-03-24T08:51:57.463Z,98816.78
2023-03-24T08:54:24.719Z,98822.97
2023-03-24T08:56:51.747Z,98808.50
2023-03-24T08:59:18.849Z,98825.41
2023-03-24T09:01:45.870Z,98818.97
2023-03-24T09:04:12.964Z,98822.22
2023-03-24T09:06:40.022Z,98811.28
2023-03-24T09:09:07.525Z,98818.59
2023-03-24T09:11:35.075Z,98818.16
2023-03-24T09:14:03.276Z,98826.19
2023-03-24T09:16:30.599Z,98820.34
2023-03-24T09:18:57.623Z,98820.13
2023-03-24T09:21:24.572Z,98818.25
2023-03-24T09:23:51.558Z,98818.81
2023-03-24T09:26:18.508Z,98816.72
2023-03-24T09:28:45.493Z,98819.16
2023-03-24T09:31:12.520Z,98822.06
2023-03-24T09:33:39.850Z,98813.31
2023-03-24T09:36:07.603Z,98812.50
2023-03-24T09:38:34.971Z,98812.50
2023-03-24T09:41:03.579Z,98807.72
2023-03-24T09:43:50.556Z,98808.28
2023-03-24T09:46:43.197Z,98812.38
2023-03-24T09:49:23.376Z,98811.56
2023-03-24T09:51:56.373Z,98807.00
2023-03-24T09:54:55.368Z,98810.25
2023-03-24T09:57:37.222Z,98829.38
2023-03-24T10:00:30.736Z,98835.78
2023-03-24T10:03:15.640Z,98831.25
2023-03-24T10:05:58.232Z,98843.63
2023-03-24T10:08:35.182Z,98842.81
2023-03-24T10:11:22.202Z,98843.25
2023-03-24T10:14:15.160Z,98842.13
2023-03-24T10:16:54.273Z,98835.34
2023-03-24T10:19:43.452Z,98844.69
2023-03-24T10:22:22.492Z,98850.53
2023-03-24T10:25:08.608Z,98852.63
2023-03-24T10:27:58.484Z,98859.63
2023-03-24T10:30:34.216Z,98867.09
2023-03-24T10:33:01.364Z,98859.63
2023-03-24T10:35:41.689Z,98859.63
2023-03-24T10:38:21.415Z,98867.66
2023-03-24T10:40:49.768Z,98867.09
2023-03-24T10:43:18.938Z,98870.84
2023-03-24T10:45:52.991Z,98870.84
2023-03-24T10:48:49.667Z,98864.41
2023-03-24T10:51:34.899Z,98882.38
2023-03-24T10:54:19.815Z,98879.13
2023-03-24T10:57:17.666Z,98884.25
2023-03-24T11:00:09.753Z,98881.47
2023-03-24T11:02:37.907Z,98882.75
2023-03-24T11:05:20.180Z,98888.44
2023-03-24T11:07:51.003Z,98902.66
2023-03-24T11:10:24.088Z,98904.28
2023-03-24T11:13:03.970Z,98898.94
2023-03-24T11:15:37.242Z,98905.09
2023-03-24T11:18:15.508Z,98913.75
2023-03-24T11:20:56.492Z,98899.53
2023-03-24T11:23:31.677Z,98909.22
2023-03-24T11:26:18.700Z,98909.78
2023-03-24T11:28:57.833Z,98906.84
2023-03-24T11:31:38.144Z,98906.28
2023-03-24T11:34:24.248Z,98918.38
2023-03-24T11:37:11.222Z,98912.00
2023-03-24T11:39:38.180Z,98903.03
2023-03-24T11:42:16.999Z,98915.97
2023-03-24T11:44:55.316Z,98906.31
2023-03-24T11:47:36.614Z,98922.38
2023-03-24T11:50:28.640Z,98901.16
2023-03-24T11:53:13.472Z,98905.22
2023-03-24T11:56:11.967Z,98898.34
2023-03-24T11:58:48.524Z,98904.03
2023-03-24T12:01:21.290Z,98909.88
2023-03-24T12:04:18.106Z,98903.34
2023-03-24T12:07:00.439Z,98892.03
2023-03-24T12:09:55.055Z,98899.47
2023-03-24T12:13:02.426Z,98897.84
2023-03-24T12:16:05.616Z,98899.94
2023-03-24T12:19:25.502Z,98909.03
2023-03-24T12:22:34.681Z,98909.28
2023-03-24T12:25:32.510Z,98909.03
2023-03-24T12:28:11.695Z,98906.94
2023-03-24T12:31:20.465Z,98906.00
2023-03-24T12:34:19.492Z,98905.53
2023-03-24T12:37:22.574Z,98896.94
2023-03-24T12:40:22.014Z,98896.94
2023-03-24T12:43:36.419Z,98885.78
2023-03-24T12:46:48.334Z,98894.94
2023-03-24T12:49:41.570Z,98907.91
2023-03-24T12:53:06.697Z,98905.56
2023-03-24T12:55:52.097Z,98900.09
2023-03-24T12:58:30.923Z,98907.22
2023-03-24T13:01:24.083Z,98895.56
2023-03-24T13:04:35.132Z,98892.19
2023-03-24T13:07:15.234Z,98892.53
2023-03-24T13:10:04.961Z,98890.53
2023-03-24T13:12:55.843Z,98893.56
2023-03-24T13:15:46.902Z,98892.91
2023-03-24T13:18:27.308Z,98894.63
2023-03-24T13:21:08.876Z,98903.16
2023-03-24T13:23:38.723Z,98903.03
2023-03-24T13:26:34.012Z,98911.41
2023-03-24T13:29:48.346Z,98901.28
2023-03-24T13:32:32.687Z,98903.59
2023-03-24T13:35:30.928Z,98902.50
2023-03-24T13:38:18.341Z,98900.47
2023-03-24T13:40:53.102Z,98910.75
2023-03-24T13:43:31.019Z,98904.63
2023-03-24T13:46:13.565Z,98902.69
2023-03-24T13:48:54.754Z,98901.38
2023-03-24T13:51:30.824Z,98887.59
2023-03-24T13:54:20.442Z,98896.56
2023-03-24T13:57:04.930Z,98892.06
2023-03-24T14:00:18.446Z,98890.94
2023-03-24T14:02:53.418Z,98893.63
2023-03-24T14:05:23.961Z,98882.84
2023-03-24T14:08:00.921Z,98876.84
2023-03-24T14:10:42.661Z,98880.16
2023-03-24T14:13:12.267Z,98882.69
2023-03-24T14:15:45.359Z,98883.84
2023-03-24T14:18:25.890Z,98877.13
2023-03-24T14:20:56.547Z,98889.69
2023-03-24T14:23:37.470Z,98882.13
2023-03-24T14:26:20.608Z,98890.38
2023-03-24T14:28:53.257Z,98888.91
2023-03-24T14:31:24.253Z,98882.00
2023-03-24T14:34:05.960Z,98882.47
2023-03-24T14:36:40.617Z,98878.16
2023-03-24T14:39:44.510Z,98875.88
2023-03-24T14:42:33.844Z,98879.88
2023-03-24T14:45:14.263Z,98880.94
2023-03-24T14:47:42.178Z,98880.13
2023-03-24T14:50:22.346Z,98877.47
2023-03-24T14:53:02.246Z,98877.91
2023-03-24T14:55:30.654Z,98874.72
2023-03-24T14:58:11.014Z,98871.94
2023-03-24T15:00:51.806Z,98865.22
2023-03-24T15:03:53.498Z,98867.50
2023-03-24T15:06:23.142Z,98871.25
2023-03-24T15:08:59.011Z,98862.63
2023-03-24T15:11:33.574Z,98870.13
2023-03-24T15:14:04.800Z,98859.22
2023-03-24T15:16:36.282Z,98861.59
2023-03-24T15:19:24.077Z,98867.16
2023-03-24T15:22:04.333Z,98862.50
2023-03-24T15:24:36.452Z,98864.81
2023-03-24T15:27:08.929Z,98868.13
2023-03-24T15:29:42.807Z,98878.16
2023-03-24T15:32:19.961Z,98873.94
2023-03-24T15:34:51.857Z,98866.50
2023-03-24T15:37:30.565Z,98861.19
2023-03-24T15:40:12.575Z,98862.97
2023-03-24T15:42:43.863Z,98853.91
2023-03-24T15:45:28.466Z,98857.31
2023-03-24T15:47:57.543Z,98860.63
2023-03-24T15:50:40.863Z,98857.94
2023-03-24T15:53:13.868Z,98848.16
2023-03-24T15:55:43.639Z,98850.22
2023-03-24T15:58:25.472Z,98844.34
2023-03-24T16:00:57.105Z,98837.34
2023-03-24T16:03:27.984Z,98843.53
2023-03-24T16:05:57.032Z,98834.53
2023-03-24T16:08:41.590Z,98839.19
2023-03-24T16:11:14.400Z,98843.78
2023-03-24T16:13:47.367Z,98846.88
2023-03-24T16:16:14.325Z,98837.31
2023-03-24T16:18:44.519Z,98842.59
2023-03-24T16:21:24.089Z,98828.91
2023-03-24T16:23:54.385Z,98836.72
2023-03-24T16:26:32.670Z,98844.22
2023-03-24T16:29:22.235Z,98825.38
2023-03-24T16:31:52.983Z,98832.16
2023-03-24T16:34:21.600Z,98842.38
2023-03-24T16:36:51.155Z,98844.75
2023-03-24T16:39:22.117Z,98832.34
2023-03-24T16:41:49.355Z,98842.50
2023-03-24T16:44:19.405Z,98841.28
2023-03-24T16:46:48.337Z,98855.19
2023-03-24T16:49:18.852Z,98844.34
2023-03-24T16:51:47.118Z,98851.22
2023-03-24T16:54:14.380Z,98851.41
2023-03-24T16:56:42.023Z,98853.44
2023-03-24T16:59:09.266Z,98852.25
2023-03-24T17:01:44.204Z,98861.78
2023-03-24T17:04:16.848Z,98867.56
2023-03-24T17:06:48.937Z,98864.50
2023-03-24T17:09:16.154Z,98866.53
2023-03-24T17:11:50.190Z,98867.97
2023-03-24T17:14:17.369Z,98867.78
2023-03-24T17:16:46.502Z,98866.88
2023-03-24T17:19:21.747Z,98875.66
2023-03-24T17:22:02.042Z,98879.88
2023-03-24T17:24:35.513Z,98882.94
2023-03-24T17:27:03.402Z,98887.19
2023-03-24T17:29:31.558Z,98886.84
2023-03-24T17:31:58.557Z,98890.25
2023-03-24T17:34:25.554Z,98893.66
2023-03-24T17:36:52.555Z,98890.88
2023-03-24T17:39:21.459Z,98895.31
2023-03-24T17:41:48.846Z,98899.31
2023-03-24T17:44:16.240Z,98908.06
2023-03-24T17:46:43.208Z,98902.00
2023-03-24T17:49:10.806Z,98904.59
2023-03-24T17:51:37.731Z,98902.16
2023-03-24T17:54:05.616Z,98903.91
2023-03-24T17:56:32.812Z,98910.56
2023-03-24T17:59:00.127Z,98917.25
2023-03-24T18:01:29.236Z,98916.88
2023-03-24T18:03:57.595Z,98917.56
2023-03-24T18:06:24.725Z,98919.13
2023-03-24T18:08:51.998Z,98919.56
2023-03-24T18:11:19.247Z,98923.31
2023-03-24T18:13:46.443Z,98930.78
2023-03-24T18:16:21.313Z,98931.22
2023-03-24T18:18:51.062Z,98925.06
2023-03-24T18:21:19.315Z,98931.72
2023-03-24T18:23:46.544Z,98933.00
2023-03-24T18:26:16.842Z,98927.28
2023-03-24T18:28:45.934Z,98928.59
2023-03-24T18:31:17.778Z,98939.75
2023-03-24T18:33:46.103Z,98934.03
2023-03-24T18:36:21.066Z,98934.47
2023-03-24T18:38:49.096Z,98944.06
2023-03-24T18:41:18.174Z,98941.00
2023-03-24T18:43:47.932Z,98938.19
2023-03-24T18:46:16.038Z,98936.25
2023-03-24T18:48:43.846Z,98935.06
2023-03-24T18:51:11.722Z,98938.22
2023-03-24T18:53:39.031Z,98950.44
2023-03-24T18:56:07.037Z,98946.56
2023-03-24T18:58:35.217Z,98943.78
2023-03-24T19:01:11.197Z,98949.00
2023-03-24T19:03:40.902Z,98942.22
2023-03-24T19:06:10.970Z,98941.06
2023-03-24T19:08:42.842Z,98955.16
2023-03-24T19:11:11.387Z,98953.97
2023-03-24T19:13:40.104Z,98954.66
2023-03-24T19:16:08.968Z,98958.59
2023-03-24T19:18:37.194Z,98964.41
2023-03-24T19:21:04.787Z,98963.22
2023-03-24T19:23:31.730Z,98961.25
2023-03-24T19:25:59.135Z,98975.91
2023-03-24T19:28:29.783Z,98970.78
2023-03-24T19:30:59.344Z,98973.09
2023-03-24T19:33:29.568Z,98968.19
2023-03-24T19:35:58.397Z,98981.00
2023-03-24T19:38:25.946Z,98981.22
2023-03-24T19:40:54.067Z,98964.31
2023-03-24T19:43:22.771Z,98971.75
2023-03-24T19:45:51.083Z,98956.53
2023-03-24T19:48:18.648Z,98969.56
2023-03-24T19:50:46.631Z,98969.31
2023-03-24T19:53:13.833Z,98961.53
2023-03-24T19:55:41.015Z,98951.03
2023-03-24T19:58:08.403Z,98942.19
2023-03-24T20:00:35.914Z,98944.84
2023-03-24T20:03:03.010Z,98945.09
2023-03-24T20:05:30.305Z,98945.31
2023-03-24T20:07:59.732Z,98946.38
2023-03-24T20:10:27.980Z,98953.78
2023-03-24T20:12:55.341Z,98960.78
2023-03-24T20:15:22.612Z,98965.34
2023-03-24T20:17:49.617Z,98975.19
2023-03-24T20:20:16.716Z,98969.25
2023-03-24T20:22:48.639Z,98975.66
2023-03-24T20:25:18.782Z,98980.63
2023-03-24T20:27:47.352Z,99003.78
2023-03-24T20:30:20.012Z,99002.00
2023-03-24T20:32:47.463Z,98996.94
2023-03-24T20:35:14.688Z,98993.47
2023-03-24T20:37:42.130Z,98990.03
2023-03-24T20:40:10.261Z,98996.72
2023-03-24T20:42:37.929Z,99000.50
2023-03-24T20:45:06.977Z,99027.75
2023-03-24T20:47:36.544Z,99050.91
2023-03-24T20:50:05.855Z,99031.09
2023-03-24T20:52:34.877Z,99008.00
2023-03-24T20:55:05.460Z,99050.50
2023-03-24T20:57:33.432Z,99013.81
2023-03-24T21:00:00.746Z,99013.09
2023-03-24T21:02:28.326Z,99042.06
2023-03-24T21:04:55.527Z,99058.13
2023-03-24T21:07:23.382Z,99038.88
2023-03-24T21:09:50.409Z,99024.16
2023-03-24T21:12:17.354Z,99027.06
2023-03-24T21:14:46.622Z,99031.38
2023-03-24T21:17:13.858Z,99031.56
2023-03-24T21:19:46.636Z,99036.09
2023-03-24T21:22:15.242Z,99040.41
2023-03-24T21:24:42.570Z,99035.91
2023-03-24T21:27:09.583Z,99037.34
2023-03-24T21:29:36.585Z,99039.19
2023-03-24T21:32:03.875Z,99033.63
2023-03-24T21:34:31.417Z,99031.41
2023-03-24T21:37:01.326Z,99033.44
2023-03-24T21:39:28.618Z,99034.66
2023-03-24T21:41:55.595Z,99040.19
2023-03-24T21:44:23.227Z,99036.94
2023-03-24T21:46:50.244Z,99039.78
2023-03-24T21:49:18.781Z,99042.66
2023-03-24T21:51:46.654Z,99037.31
2023-03-24T21:54:14.692Z,99032.00
2023-03-24T21:56:42.066Z,99034.88
2023-03-24T21:59:10.964Z,99042.66
2023-03-24T22:01:38.169Z,99040.19
2023-03-24T22:04:07.301Z,99028.53
2023-03-24T22:06:37.701Z,99020.94
2023-03-24T22:09:06.746Z,99020.09
2023-03-24T22:11:35.000Z,99021.13
2023-03-24T22:14:02.291Z,99022.16
2023-03-24T22:16:29.439Z,99030.16
2023-03-24T22:18:57.090Z,99024.00
2023-03-24T22:21:24.111Z,99026.47
2023-03-24T22:23:51.442Z,99027.28
2023-03-24T22:26:18.992Z,99029.75
2023-03-24T22:28:46.446Z,99037.31
2023-03-24T22:31:16.775Z,99034.44
2023-03-24T22:33:44.519Z,99036.94
2023-03-24T22:36:12.281Z,99037.75
2023-03-24T22:38:40.026Z,99043.69
2023-03-24T22:41:11.321Z,99041.84
2023-03-24T22:43:41.835Z,99039.78
2023-03-24T22:46:11.037Z,99048.41
2023-03-24T22:48:39.191Z,99044.28
2023-03-24T22:51:07.125Z,99057.63
2023-03-24T22:53:36.023Z,99081.19
2023-03-24T22:56:03.565Z,99066.84
2023-03-24T22:58:30.784Z,99045.94
2023-03-24T23:00:58.032Z,99090.22
2023-03-24T23:03:25.527Z,99073.38
2023-03-24T23:05:53.057Z,99073.19
2023-03-24T23:08:20.730Z,99087.31
2023-03-24T23:10:49.039Z,99082.59
2023-03-24T23:13:19.980Z,99090.19
2023-03-24T23:15:50.272Z,99091.59
2023-03-24T23:18:18.244Z,99086.66
2023-03-24T23:20:46.000Z,99090.75
2023-03-24T23:23:13.624Z,99102.44
2023-03-24T23:25:44.118Z,99101.78
2023-03-24T23:28:13.101Z,99111.25
2023-03-24T23:30:40.626Z,99107.56
2023-03-24T23:33:08.091Z,99112.88
2023-03-24T23:35:37.256Z,99104.88
2023-03-24T23:38:05.340Z,99113.09
2023-03-24T23:40:32.350Z,99117.38
2023-03-24T23:42:59.708Z,99114.28
2023-03-24T23:45:27.432Z,99115.31
2023-03-24T23:47:54.765Z,99141.13
2023-03-24T23:50:21.749Z,99120.22
2023-03-24T23:52:48.792Z,99121.25
2023-03-24T23:55:18.091Z,99140.50
2023-03-24T23:57:49.064Z,99122.47
